Time;durP1;ratioP1;P1;durP2;ratioP2;P2;SDS_P1;SDS_P2;PMS_P1;PMS_P2;Temp;Humidity;BMP_temperature;BMP_pressure;BME280_temperature;BME280_humidity;BME280_pressure;Samples;Min_cycle;Max_cycle;Signal;HPM_P1;HPM_P2
2022/07/21 00:00:18;;;;;;;;;;;20.60;80.00;;;;;;5060042;28;20037;-81
2022/07/21 00:02:45;;;;;;;5.22;3.30;;;20.70;79.80;;;;;;5082394;28;19975;-80
2022/07/21 00:05:12;;;;;;;4.65;2.85;;;20.70;79.90;;;;;;5057899;28;20118;-81
2022/07/21 00:07:39;;;;;;;3.92;2.53;;;20.80;80.00;;;;;;5041126;28;20033;-81
2022/07/21 00:10:06;;;;;;;3.65;2.60;;;20.80;80.00;;;;;;5057639;28;20075;-81
2022/07/21 00:12:33;;;;;;;3.75;2.35;;;20.90;79.90;;;;;;5035907;28;20083;-81
2022/07/21 00:15:02;;;;;;;4.93;2.92;;;20.90;80.10;;;;;;5051126;28;20055;-81
2022/07/21 00:17:29;;;;;;;4.07;2.63;;;20.80;80.30;;;;;;5073654;28;20546;-79
2022/07/21 00:19:56;;;;;;;4.45;2.63;;;20.80;80.30;;;;;;5022241;28;20052;-81
2022/07/21 00:22:23;;;;;;;4.55;3.00;;;20.80;80.40;;;;;;5075160;28;20060;-81
2022/07/21 00:24:50;;;;;;;4.43;2.65;;;20.80;80.40;;;;;;5053616;28;20090;-81
2022/07/21 00:27:17;;;;;;;3.38;2.50;;;20.80;80.50;;;;;;5073547;28;20078;-81
2022/07/21 00:29:44;;;;;;;3.38;2.28;;;20.80;80.60;;;;;;5067835;28;20044;-81
2022/07/21 00:32:11;;;;;;;3.38;2.47;;;20.80;80.60;;;;;;5039203;28;20053;-81
2022/07/21 00:34:44;;;;;;;3.45;2.38;;;20.80;80.60;;;;;;5046919;28;20063;-82
2022/07/21 00:37:11;;;;;;;3.15;2.30;;;20.90;80.60;;;;;;5042490;28;20061;-81
2022/07/21 00:39:38;;;;;;;5.22;2.75;;;20.90;80.70;;;;;;5071712;28;20068;-81
2022/07/21 00:42:05;;;;;;;3.63;2.38;;;20.90;80.70;;;;;;5055497;28;20040;-81
2022/07/21 00:44:32;;;;;;;3.85;2.45;;;20.90;80.80;;;;;;5048548;28;20044;-81
2022/07/21 00:46:59;;;;;;;4.03;2.90;;;21.00;80.90;;;;;;5056731;28;20043;-81
2022/07/21 00:49:27;;;;;;;3.72;2.65;;;21.00;80.90;;;;;;5056715;28;20733;-81
2022/07/21 00:51:54;;;;;;;3.97;2.97;;;21.00;81.00;;;;;;5040607;28;20447;-81
2022/07/21 00:54:21;;;;;;;3.72;2.65;;;21.00;81.10;;;;;;5023448;28;20045;-81
2022/07/21 00:56:48;;;;;;;4.60;3.15;;;21.00;81.10;;;;;;5035266;28;20049;-82
2022/07/21 00:59:16;;;;;;;4.05;3.03;;;21.00;81.10;;;;;;5053321;28;20068;-81
2022/07/21 01:01:43;;;;;;;6.22;3.10;;;21.00;81.00;;;;;;5053906;28;20068;-81
2022/07/21 01:04:10;;;;;;;5.53;3.53;;;21.00;81.10;;;;;;5040411;28;20043;-81
2022/07/21 01:06:37;;;;;;;5.18;3.05;;;21.00;81.20;;;;;;5039944;28;20518;-81
2022/07/21 01:09:04;;;;;;;4.05;2.78;;;21.00;81.20;;;;;;5040175;28;20457;-81
2022/07/21 01:11:37;;;;;;;4.63;3.38;;;21.00;81.20;;;;;;5073274;28;20045;-81
2022/07/21 01:14:05;;;;;;;5.00;3.60;;;21.00;81.20;;;;;;5064458;28;20363;-81
2022/07/21 01:16:32;;;;;;;5.53;3.47;;;21.00;81.30;;;;;;5032598;28;20041;-81
2022/07/21 01:19:00;;;;;;;5.47;3.97;;;21.00;81.30;;;;;;5075020;28;20044;-81
2022/07/21 01:21:42;;;;;;;4.57;3.22;;;21.00;81.30;;;;;;5055607;28;20063;-80
2022/07/21 01:24:10;;;;;;;5.88;3.00;;;20.90;81.40;;;;;;5051070;28;20407;-80
2022/07/21 01:26:49;;;;;;;4.15;3.25;;;20.90;81.40;;;;;;5050274;28;20442;-81
2022/07/21 01:29:17;;;;;;;4.70;3.40;;;20.90;81.40;;;;;;5055754;28;20125;-81
2022/07/21 01:31:48;;;;;;;4.55;3.13;;;20.80;81.40;;;;;;5051866;28;20098;-80
2022/07/21 01:34:15;;;;;;;4.22;3.00;;;20.80;81.50;;;;;;5076316;28;20073;-81
2022/07/21 01:36:42;;;;;;;5.00;3.85;;;20.80;81.60;;;;;;5061425;28;20075;-81
2022/07/21 01:41:55;;;;;;;4.82;3.25;;;20.80;81.70;;;;;;5038537;28;20452;-82
2022/07/21 01:44:22;;;;;;;5.28;3.08;;;20.80;81.70;;;;;;5035852;28;20044;-81
2022/07/21 01:46:51;;;;;;;4.70;3.22;;;20.70;81.60;;;;;;5054724;28;20143;-82
2022/07/21 01:49:19;;;;;;;4.07;2.47;;;20.70;81.70;;;;;;5051298;28;20072;-81
2022/07/21 01:51:47;;;;;;;4.43;3.13;;;20.70;82.40;;;;;;5017389;28;20543;-81
2022/07/21 01:54:14;;;;;;;4.53;3.13;;;20.70;81.70;;;;;;5053383;28;20063;-81
2022/07/21 01:56:49;;;;;;;3.58;2.60;;;20.70;81.70;;;;;;5008680;28;20040;-81
2022/07/21 01:59:16;;;;;;;5.40;3.03;;;20.70;81.70;;;;;;5038951;28;20467;-81
2022/07/21 02:01:43;;;;;;;5.05;2.85;;;20.70;81.80;;;;;;5038310;28;20151;-82
2022/07/21 02:04:11;;;;;;;4.40;2.67;;;20.70;81.70;;;;;;5073534;28;20048;-82
2022/07/21 02:06:38;;;;;;;6.18;3.58;;;20.70;81.70;;;;;;5038031;28;20048;-82
2022/07/21 02:09:06;;;;;;;3.47;2.70;;;20.70;81.70;;;;;;5052094;28;20037;-82
2022/07/21 02:11:34;;;;;;;7.60;3.47;;;20.70;81.70;;;;;;5051531;28;20087;-82
2022/07/21 02:14:01;;;;;;;4.53;3.10;;;20.70;81.70;;;;;;5036779;28;20041;-81
2022/07/21 02:16:28;;;;;;;4.53;3.40;;;20.70;81.70;;;;;;5018820;28;20140;-81
2022/07/21 02:18:55;;;;;;;4.55;2.80;;;20.70;81.80;;;;;;5032534;28;20413;-82
2022/07/21 02:21:23;;;;;;;4.75;3.28;;;20.70;81.80;;;;;;5045034;28;20545;-82
2022/07/21 02:23:51;;;;;;;4.70;2.88;;;20.70;81.80;;;;;;5071489;28;20520;-83
2022/07/21 02:26:18;;;;;;;5.30;3.80;;;20.60;81.90;;;;;;5054724;28;20055;-81
2022/07/21 02:28:45;;;;;;;6.07;3.78;;;20.60;82.50;;;;;;5037742;28;20500;-82
2022/07/21 02:31:12;;;;;;;5.47;3.85;;;20.50;81.90;;;;;;5018984;28;20071;-81
2022/07/21 02:33:39;;;;;;;6.13;4.10;;;20.50;82.00;;;;;;5064641;28;20036;-82
2022/07/21 02:36:07;;;;;;;5.13;3.85;;;20.50;82.00;;;;;;5022234;28;20037;-81
2022/07/21 02:38:34;;;;;;;6.15;3.78;;;20.40;82.10;;;;;;5038408;28;20068;-82
2022/07/21 02:41:01;;;;;;;5.95;3.80;;;20.50;82.30;;;;;;5054731;28;20036;-81
2022/07/21 02:43:28;;;;;;;5.82;4.18;;;20.50;82.20;;;;;;5021961;28;20044;-81
2022/07/21 02:45:55;;;;;;;5.45;4.15;;;20.50;82.30;;;;;;5038136;28;20049;-82
2022/07/21 02:48:22;;;;;;;5.80;4.07;;;20.50;82.40;;;;;;5067848;28;20061;-81
2022/07/21 02:50:49;;;;;;;4.95;3.90;;;20.50;82.30;;;;;;5031377;28;20474;-81
2022/07/21 02:53:19;;;;;;;5.40;3.83;;;20.50;82.30;;;;;;5017619;28;20484;-80
2022/07/21 02:55:47;;;;;;;5.80;3.60;;;20.60;82.20;;;;;;5045903;28;20041;-81
2022/07/21 02:58:18;;;;;;;5.60;3.95;;;20.60;82.10;;;;;;5049914;28;20041;-81
2022/07/21 03:00:49;;;;;;;5.03;3.85;;;20.70;82.10;;;;;;5050484;28;20044;-81
2022/07/21 03:03:17;;;;;;;6.18;3.80;;;20.70;82.10;;;;;;5049484;28;20087;-82
2022/07/21 03:05:44;;;;;;;5.30;3.67;;;20.70;82.70;;;;;;5050249;28;20091;-81
2022/07/21 03:08:12;;;;;;;5.57;3.45;;;20.70;82.00;;;;;;5016658;28;20049;-81
2022/07/21 03:10:40;;;;;;;5.63;4.13;;;20.70;81.90;;;;;;5053474;28;20047;-81
2022/07/21 03:13:10;;;;;;;5.95;4.53;;;20.80;82.00;;;;;;5032075;28;20033;-81
2022/07/21 03:15:37;;;;;;;5.25;4.18;;;20.80;82.00;;;;;;5052037;28;20087;-81
2022/07/21 03:18:05;;;;;;;6.70;4.32;;;20.80;81.90;;;;;;5052082;28;20543;-82
2022/07/21 03:20:34;;;;;;;6.68;4.32;;;20.70;81.90;;;;;;5046850;28;20103;-82
2022/07/21 03:23:02;;;;;;;5.00;3.97;;;20.80;82.00;;;;;;5043251;28;20072;-81
2022/07/21 03:25:29;;;;;;;6.88;4.45;;;20.80;81.90;;;;;;5034049;28;20103;-81
2022/07/21 03:27:57;;;;;;;6.35;4.70;;;20.70;82.00;;;;;;5031173;28;20111;-82
2022/07/21 03:30:26;;;;;;;6.03;4.75;;;20.80;82.00;;;;;;5053307;28;20037;-84
2022/07/21 03:32:53;;;;;;;6.47;4.80;;;20.80;82.00;;;;;;5050745;28;20084;-81
2022/07/21 03:35:20;;;;;;;6.82;4.75;;;20.70;82.10;;;;;;5034011;28;20042;-82
2022/07/21 03:37:53;;;;;;;6.25;4.75;;;20.70;82.20;;;;;;5022859;28;20091;-81
2022/07/21 03:40:23;;;;;;;6.00;4.20;;;20.70;82.20;;;;;;5050816;28;20037;-81
2022/07/21 03:42:52;;;;;;;5.55;4.28;;;20.70;82.30;;;;;;5041317;28;20041;-81
2022/07/21 03:45:20;;;;;;;5.60;4.18;;;20.60;82.20;;;;;;5028298;28;20047;-81
2022/07/21 03:47:48;;;;;;;7.03;5.30;;;20.60;82.20;;;;;;5029610;28;20046;-81
2022/07/21 03:50:17;;;;;;;6.03;4.80;;;20.60;82.30;;;;;;5030465;28;20049;-81
2022/07/21 03:52:46;;;;;;;5.43;3.88;;;20.60;82.40;;;;;;5023160;28;20623;-81
2022/07/21 03:55:18;;;;;;;6.35;4.35;;;20.60;82.30;;;;;;5023246;28;20469;-81
2022/07/21 03:57:46;;;;;;;;;;;20.60;82.40;;;;;;5016395;28;20536;-81
2022/07/21 04:00:18;;;;;;;5.00;3.67;;;20.60;82.90;;;;;;5046407;28;19927;-81
2022/07/21 04:02:46;;;;;;;6.28;4.30;;;20.50;82.40;;;;;;5039723;28;20045;-81
2022/07/21 04:05:15;;;;;;;5.47;3.83;;;20.50;82.40;;;;;;5001136;28;20045;-81
2022/07/21 04:07:44;;;;;;;5.82;4.10;;;20.50;82.30;;;;;;5055753;28;20048;-81
2022/07/21 04:10:13;;;;;;;5.57;4.40;;;20.50;82.50;;;;;;5045888;28;20472;-82
2022/07/21 04:12:41;;;;;;;7.70;5.00;;;20.60;82.40;;;;;;5021489;28;20053;-81
2022/07/21 04:15:09;;;;;;;6.07;4.63;;;20.60;82.40;;;;;;5030713;28;20042;-81
2022/07/21 04:17:38;;;;;;;5.45;4.25;;;20.60;82.50;;;;;;5030551;28;20121;-83
2022/07/21 04:20:06;;;;;;;7.20;4.40;;;20.60;82.50;;;;;;5015803;28;20041;-82
2022/07/21 04:22:33;;;;;;;6.00;4.43;;;20.60;82.50;;;;;;4999854;28;20050;-81
2022/07/21 04:25:00;;;;;;;6.68;4.60;;;20.50;82.50;;;;;;5053277;28;20049;-82
2022/07/21 04:27:28;;;;;;;6.97;4.88;;;20.50;82.50;;;;;;5029832;28;20042;-82
2022/07/21 04:29:55;;;;;;;6.10;4.72;;;20.50;82.50;;;;;;5053425;28;20053;-82
2022/07/21 04:32:23;;;;;;;6.80;4.72;;;20.50;82.60;;;;;;5019938;28;20045;-82
2022/07/21 04:34:50;;;;;;;7.72;5.28;;;20.50;82.70;;;;;;5040416;28;20108;-82
2022/07/21 04:37:17;;;;;;;5.97;4.65;;;20.50;82.70;;;;;;5044306;28;20451;-82
2022/07/21 04:39:44;;;;;;;6.28;4.40;;;20.50;82.60;;;;;;5047900;28;20038;-82
2022/07/21 04:42:18;;;;;;;7.93;5.32;;;20.50;82.60;;;;;;5035436;28;20457;-82
2022/07/21 04:44:45;;;;;;;6.68;5.00;;;20.50;82.60;;;;;;5050178;28;20088;-82
2022/07/21 04:47:12;;;;;;;7.28;4.90;;;20.50;82.70;;;;;;5033245;28;20564;-81
2022/07/21 04:49:40;;;;;;;6.68;5.15;;;20.40;82.70;;;;;;5006293;28;20063;-82
2022/07/21 04:52:08;;;;;;;8.00;5.55;;;20.40;82.80;;;;;;5036000;28;20046;-81
2022/07/21 04:54:36;;;;;;;7.47;5.38;;;20.40;82.70;;;;;;5020780;28;20036;-82
2022/07/21 04:57:05;;;;;;;7.15;5.32;;;20.40;82.70;;;;;;5056109;28;20504;-82
2022/07/21 04:59:33;;;;;;;7.82;5.57;;;20.40;82.70;;;;;;5026921;28;20048;-83
2022/07/21 05:02:01;;;;;;;7.05;5.20;;;20.40;82.80;;;;;;5038774;28;20045;-82
2022/07/21 05:04:28;;;;;;;8.30;5.80;;;20.50;83.10;;;;;;5054851;28;20411;-81
2022/07/21 05:06:55;;;;;;;7.80;5.55;;;20.50;82.80;;;;;;5053383;28;20083;-81
2022/07/21 05:09:22;;;;;;;8.77;5.30;;;20.50;82.90;;;;;;5044955;28;20118;-81
2022/07/21 05:11:50;;;;;;;7.00;5.25;;;20.50;82.80;;;;;;5041785;28;20036;-81
2022/07/21 05:14:17;;;;;;;7.47;5.53;;;20.50;82.80;;;;;;5041383;28;20068;-81
2022/07/21 05:16:44;;;;;;;7.15;5.40;;;20.60;82.90;;;;;;5039446;28;20140;-82
2022/07/21 05:19:11;;;;;;;8.55;5.70;;;20.60;82.80;;;;;;5036149;28;20558;-81
2022/07/21 05:21:45;;;;;;;8.13;5.50;;;20.60;82.80;;;;;;5023599;28;20044;-82
2022/07/21 05:24:12;;;;;;;8.20;5.90;;;20.70;82.90;;;;;;5059394;28;20492;-82
2022/07/21 05:26:41;;;;;;;7.20;5.25;;;20.70;82.80;;;;;;5041276;28;20393;-81
2022/07/21 05:29:08;;;;;;;7.78;5.45;;;20.70;82.80;;;;;;5024935;28;20056;-80
2022/07/21 05:31:35;;;;;;;8.00;5.55;;;20.70;82.80;;;;;;5058136;28;20056;-82
2022/07/21 05:34:03;;;;;;;7.65;5.25;;;20.70;82.80;;;;;;5024489;28;20036;-82
2022/07/21 05:36:30;;;;;;;8.25;6.13;;;20.70;82.80;;;;;;5056297;28;20053;-81
2022/07/21 05:38:57;;;;;;;7.95;5.95;;;20.70;82.80;;;;;;5028781;28;20044;-82
2022/07/21 05:41:24;;;;;;;8.32;5.65;;;20.70;82.70;;;;;;5057263;28;20041;-81
2022/07/21 05:43:51;;;;;;;9.15;6.40;;;20.80;82.80;;;;;;5040374;28;20075;-82
2022/07/21 05:46:18;;;;;;;9.32;6.63;;;20.80;82.70;;;;;;5033169;28;20049;-82
2022/07/21 05:48:45;;;;;;;8.30;5.82;;;20.80;82.60;;;;;;5055630;28;20102;-81
2022/07/21 05:51:12;;;;;;;9.70;6.95;;;20.80;82.50;;;;;;5049777;28;20036;-84
2022/07/21 05:53:44;;;;;;;11.10;8.65;;;20.80;82.60;;;;;;5057101;28;20498;-84
2022/07/21 05:56:12;;;;;;;12.80;8.38;;;20.70;82.80;;;;;;5042408;28;20416;-84
2022/07/21 05:58:39;;;;;;;11.82;8.23;;;20.60;82.80;;;;;;5049307;28;20055;-84
2022/07/21 06:01:09;;;;;;;11.02;8.10;;;20.60;82.90;;;;;;5033954;28;20075;-84
2022/07/21 06:03:37;;;;;;;11.80;8.30;;;20.60;83.00;;;;;;5026516;28;20049;-84
2022/07/21 06:06:05;;;;;;;10.85;8.25;;;20.60;83.00;;;;;;5036057;28;20505;-84
2022/07/21 06:08:32;;;;;;;10.13;8.00;;;20.60;83.10;;;;;;5038083;28;20048;-84
2022/07/21 06:11:00;;;;;;;11.48;8.80;;;20.60;83.00;;;;;;5052605;28;20152;-84
2022/07/21 06:13:27;;;;;;;12.93;9.02;;;20.60;83.00;;;;;;5017083;28;20041;-85
2022/07/21 06:15:54;;;;;;;9.40;7.43;;;20.60;82.90;;;;;;5034900;28;20040;-83
2022/07/21 06:18:21;;;;;;;15.70;10.27;;;20.50;82.90;;;;;;5038403;28;20075;-84
2022/07/21 06:20:49;;;;;;;11.70;9.07;;;20.50;83.00;;;;;;5038333;28;20071;-84
2022/07/21 06:23:20;;;;;;;12.50;9.32;;;20.50;83.10;;;;;;5055076;28;20102;-83
2022/07/21 06:25:47;;;;;;;10.30;7.93;;;20.50;83.00;;;;;;5056273;28;20036;-84
2022/07/21 06:28:14;;;;;;;11.82;8.18;;;20.50;82.90;;;;;;5038688;28;20071;-84
2022/07/21 06:30:41;;;;;;;12.20;8.30;;;20.50;82.90;;;;;;5055231;28;20123;-84
2022/07/21 06:33:09;;;;;;;10.65;8.20;;;20.60;82.90;;;;;;5028785;28;20397;-83
2022/07/21 06:35:37;;;;;;;10.13;8.07;;;20.60;82.80;;;;;;5066645;28;20075;-88
2022/07/21 06:38:04;;;;;;;10.45;6.80;;;20.60;82.70;;;;;;5065444;28;20028;-85
2022/07/21 06:40:38;;;;;;;10.75;7.28;;;20.70;82.50;;;;;;5059269;28;20043;-86
2022/07/21 06:43:05;;;;;;;9.88;7.82;;;20.80;82.30;;;;;;5039853;28;20044;-84
2022/07/21 06:45:52;;;;;;;10.75;8.18;;;20.90;82.00;;;;;;5043830;28;20050;-85
2022/07/21 06:48:21;;;;;;;11.93;9.55;;;21.00;81.90;;;;;;5055381;28;20119;-85
2022/07/21 06:50:49;;;;;;;11.55;8.35;;;21.00;81.70;;;;;;5020306;28;20464;-85
2022/07/21 06:53:17;;;;;;;10.52;7.80;;;21.10;81.70;;;;;;5043999;28;20051;-84
2022/07/21 06:55:44;;;;;;;11.30;7.55;;;21.20;81.50;;;;;;5051344;28;20048;-86
2022/07/21 06:58:17;;;;;;;9.38;6.97;;;21.30;81.30;;;;;;5055285;28;20044;-84
2022/07/21 07:00:45;;;;;;;9.88;7.80;;;21.40;81.10;;;;;;5054718;28;20055;-84
2022/07/21 07:03:13;;;;;;;12.43;8.85;;;21.40;80.70;;;;;;5052854;28;20185;-85
2022/07/21 07:05:45;;;;;;;12.85;9.35;;;21.40;81.30;;;;;;5039214;28;20049;-85
2022/07/21 07:08:13;;;;;;;11.87;9.40;;;21.40;80.70;;;;;;5038573;28;20049;-85
2022/07/21 07:10:41;;;;;;;10.80;8.13;;;21.50;80.70;;;;;;5055483;28;20044;-83
2022/07/21 07:13:08;;;;;;;11.10;7.85;;;21.60;80.50;;;;;;5052077;28;20063;-84
2022/07/21 07:15:55;;;;;;;11.88;8.45;;;21.60;80.50;;;;;;5058094;28;20068;-85
2022/07/21 07:18:24;;;;;;;10.93;8.35;;;21.60;80.40;;;;;;5037870;28;20143;-84
2022/07/21 07:20:51;;;;;;;10.13;8.07;;;21.60;80.40;;;;;;5032641;28;20045;-83
2022/07/21 07:23:19;;;;;;;10.10;8.30;;;21.50;80.40;;;;;;5020814;28;20143;-84
2022/07/21 07:25:46;;;;;;;11.65;7.75;;;21.50;80.50;;;;;;5034996;28;20052;-85
2022/07/21 07:28:13;;;;;;;10.25;7.68;;;21.50;80.50;;;;;;5038666;28;20071;-87
2022/07/21 07:30:40;;;;;;;9.45;7.35;;;21.50;80.50;;;;;;5040261;28;20037;-86
2022/07/21 07:33:11;;;;;;;10.70;7.25;;;21.50;80.60;;;;;;5035080;28;20048;-86
2022/07/21 07:35:44;;;;;;;9.00;6.80;;;21.50;80.50;;;;;;5040619;28;20112;-86
2022/07/21 07:38:15;;;;;;;9.15;7.13;;;21.40;80.40;;;;;;5046561;28;20364;-86
2022/07/21 07:40:43;;;;;;;9.70;6.45;;;21.50;80.40;;;;;;5040036;28;20048;-84
2022/07/21 07:43:10;;;;;;;9.70;6.78;;;21.50;80.40;;;;;;5028003;28;20045;-83
2022/07/21 07:45:38;;;;;;;10.90;8.27;;;21.50;80.40;;;;;;5032382;28;20485;-82
2022/07/21 07:48:06;;;;;;;8.70;6.63;;;21.50;80.30;;;;;;5020113;28;20045;-82
2022/07/21 07:50:33;;;;;;;7.72;5.65;;;21.50;80.40;;;;;;5037561;28;20123;-83
2022/07/21 07:53:00;;;;;;;8.23;5.85;;;21.60;80.20;;;;;;5039441;28;20036;-83
2022/07/21 07:55:27;;;;;;;8.43;6.05;;;21.60;80.10;;;;;;5024451;28;20052;-83
2022/07/21 07:57:55;;;;;;;9.90;6.20;;;21.70;80.10;;;;;;5040800;28;20131;-83
2022/07/21 08:00:22;;;;;;;9.73;6.47;;;21.70;79.90;;;;;;5038721;28;20558;-83
2022/07/21 08:03:09;;;;;;;11.18;8.30;;;21.70;79.80;;;;;;5070915;28;20125;-83
2022/07/21 08:05:36;;;;;;;9.65;7.25;;;21.70;79.40;;;;;;5058064;28;20055;-83
2022/07/21 08:08:03;;;;;;;12.10;8.13;;;21.70;79.30;;;;;;5056933;28;20048;-85
2022/07/21 08:10:30;;;;;;;12.88;8.32;;;21.70;79.40;;;;;;5012190;28;20048;-83
2022/07/21 08:13:16;;;;;;;10.52;7.75;;;21.70;79.30;;;;;;5044569;28;20104;-85
2022/07/21 08:15:44;;;;;;;10.43;7.38;;;21.70;79.40;;;;;;5042669;28;20560;-85
2022/07/21 08:18:11;;;;;;;11.82;7.57;;;21.80;79.40;;;;;;5043599;28;20071;-86
2022/07/21 08:20:42;;;;;;;8.40;6.43;;;21.80;79.20;;;;;;5049338;28;20040;-85
2022/07/21 08:23:10;;;;;;;10.70;7.78;;;21.80;79.10;;;;;;5047788;28;20492;-86
2022/07/21 08:25:38;;;;;;;11.40;8.15;;;21.80;78.90;;;;;;5057000;28;20055;-85
2022/07/21 08:28:06;;;;;;;11.30;7.93;;;21.80;78.90;;;;;;5053913;28;20047;-86
2022/07/21 08:30:33;;;;;;;12.00;8.10;;;21.80;78.90;;;;;;5037205;28;20056;-85
2022/07/21 08:33:01;;;;;;;8.93;7.35;;;21.80;79.00;;;;;;5040922;28;20442;-85
2022/07/21 08:35:28;;;;;;;9.82;6.75;;;21.80;79.50;;;;;;5052404;28;20503;-85
2022/07/21 08:38:05;;;;;;;9.30;6.75;;;22.00;78.80;;;;;;5053783;28;20045;-85
2022/07/21 08:40:35;;;;;;;7.43;5.65;;;22.10;78.30;;;;;;5039505;28;20505;-85
2022/07/21 08:43:03;;;;;;;9.40;6.78;;;22.20;78.20;;;;;;5053714;28;20052;-86
2022/07/21 08:45:31;;;;;;;9.40;7.10;;;22.30;78.10;;;;;;5031015;28;20049;-85
2022/07/21 08:47:59;;;;;;;11.48;7.25;;;22.30;78.00;;;;;;5003419;28;20060;-86
2022/07/21 08:50:30;;;;;;;7.38;5.85;;;22.30;78.10;;;;;;5047108;28;20045;-86
2022/07/21 08:52:57;;;;;;;7.65;5.78;;;22.30;78.20;;;;;;5049160;28;20033;-84
2022/07/21 08:55:43;;;;;;;8.20;5.78;;;22.30;78.20;;;;;;5033728;28;20095;-85
2022/07/21 08:58:14;;;;;;;10.20;7.22;;;22.30;78.10;;;;;;5052431;28;20047;-85
2022/07/21 09:00:49;;;;;;;8.55;6.18;;;22.30;78.20;;;;;;5021770;28;20041;-82
2022/07/21 09:03:23;;;;;;;10.18;6.22;;;22.20;78.30;;;;;;5046904;28;20100;-85
2022/07/21 09:06:06;;;;;;;9.60;7.03;;;22.20;78.30;;;;;;5068622;28;20128;-83
2022/07/21 09:08:42;;;;;;;11.32;7.13;;;22.20;78.20;;;;;;5067236;28;20052;-86
2022/07/21 09:11:32;;;;;;;;;;;;;;;;;;;;;
2022/07/21 09:14:09;;;;;;;11.63;6.97;;;21.90;78.60;;;;;;5049314;28;20046;-85
2022/07/21 09:16:46;;;;;;;16.58;9.65;;;21.80;78.80;;;;;;5032958;28;20049;-85
2022/07/21 09:19:35;;;;;;;11.20;7.85;;;21.70;79.20;;;;;;5023776;28;20045;-85
2022/07/21 09:22:10;;;;;;;10.30;7.38;;;21.60;79.40;;;;;;5027312;28;20561;-85
2022/07/21 09:24:39;;;;;;;12.18;8.20;;;21.50;79.60;;;;;;5052094;28;20052;-84
2022/07/21 09:27:25;;;;;;;12.15;7.90;;;21.40;79.90;;;;;;5048035;28;20041;-86
2022/07/21 09:30:03;;;;;;;15.55;9.32;;;21.30;80.10;;;;;;5045382;28;20115;-81
2022/07/21 09:32:37;;;;;;;11.80;8.45;;;21.10;81.00;;;;;;5048003;28;20052;-82
2022/07/21 09:35:13;;;;;;;8.85;6.15;;;20.90;81.30;;;;;;5046577;28;20406;-81
2022/07/21 09:37:41;;;;;;;10.15;5.97;;;20.80;81.30;;;;;;5030870;28;20049;-81
2022/07/21 09:40:15;;;;;;;6.53;4.43;;;20.80;81.50;;;;;;5039310;28;20041;-82
2022/07/21 09:42:50;;;;;;;6.15;4.20;;;20.80;81.40;;;;;;5050018;28;20040;-82
2022/07/21 09:45:18;;;;;;;7.05;4.38;;;20.90;81.50;;;;;;5049662;28;20030;-84
2022/07/21 09:47:46;;;;;;;6.68;4.00;;;20.80;81.70;;;;;;5036881;28;20139;-84
2022/07/21 09:50:17;;;;;;;6.45;3.60;;;20.70;82.10;;;;;;5037273;28;20404;-82
2022/07/21 09:52:57;;;;;;;5.40;3.60;;;20.40;82.80;;;;;;5036705;28;20109;-84
2022/07/21 09:55:25;;;;;;;5.10;3.15;;;20.30;83.60;;;;;;5021303;28;20049;-85
2022/07/21 09:57:54;;;;;;;4.95;3.45;;;20.20;84.00;;;;;;5035874;28;20151;-82
2022/07/21 10:00:21;;;;;;;4.35;2.65;;;20.10;84.30;;;;;;5022435;28;20040;-84
2022/07/21 10:02:49;;;;;;;4.70;2.67;;;20.10;84.70;;;;;;5022652;28;20064;-85
2022/07/21 10:05:19;;;;;;;3.47;2.30;;;20.00;85.10;;;;;;5038092;28;20044;-82
2022/07/21 10:07:47;;;;;;;5.13;2.83;;;20.00;85.20;;;;;;5048046;28;20472;-83
2022/07/21 10:10:19;;;;;;;3.70;2.20;;;20.00;85.70;;;;;;5022332;28;20064;-81
2022/07/21 10:12:49;;;;;;;3.92;2.03;;;20.00;85.70;;;;;;5042630;28;20033;-81
2022/07/21 10:15:17;;;;;;;3.28;1.80;;;20.00;85.70;;;;;;5036993;28;20500;-81
2022/07/21 10:17:47;;;;;;;3.10;2.10;;;20.10;85.90;;;;;;5051440;28;20045;-81
2022/07/21 10:20:29;;;;;;;2.60;1.30;;;20.10;85.90;;;;;;5069729;28;20036;-80
2022/07/21 10:23:23;;;;;;;2.90;1.67;;;20.20;85.80;;;;;;5049432;28;20105;-78
2022/07/21 10:25:52;;;;;;;2.17;1.13;;;20.10;85.80;;;;;;5035655;28;20562;-78
2022/07/21 10:28:23;;;;;;;1.67;1.08;;;20.10;86.00;;;;;;5052159;28;20080;-80
2022/07/21 10:30:56;;;;;;;2.67;1.40;;;20.10;86.10;;;;;;5054250;28;20069;-80
2022/07/21 10:33:46;;;;;;;2.65;1.20;;;20.10;86.30;;;;;;5053272;28;20048;-82
2022/07/21 10:36:28;;;;;;;2.90;1.40;;;20.10;86.30;;;;;;5057813;28;20080;-79
2022/07/21 10:39:10;;;;;;;2.33;0.90;;;20.10;86.60;;;;;;5070500;28;20545;-82
2022/07/21 10:41:46;;;;;;;2.60;1.10;;;20.10;86.60;;;;;;5071841;28;20044;-80
2022/07/21 10:44:28;;;;;;;2.22;1.13;;;20.10;86.80;;;;;;5064225;28;20045;-79
2022/07/21 10:47:24;;;;;;;3.05;1.40;;;20.10;86.80;;;;;;5060420;28;20048;-80
2022/07/21 10:50:04;;;;;;;3.05;1.55;;;20.10;86.90;;;;;;5033556;28;20102;-81
2022/07/21 10:52:45;;;;;;;3.15;1.30;;;20.00;87.20;;;;;;5072255;28;20044;-79
2022/07/21 10:55:28;;;;;;;2.38;1.00;;;20.10;87.40;;;;;;5078091;28;20036;-81
2022/07/21 10:58:31;;;;;;;2.38;1.33;;;20.20;87.40;;;;;;5027317;28;20135;-80
2022/07/21 11:01:05;;;;;;;2.53;1.50;;;20.20;87.30;;;;;;5060694;28;20095;-79
2022/07/21 11:03:40;;;;;;;3.05;2.00;;;20.10;87.50;;;;;;5054021;28;20045;-81
2022/07/21 11:06:30;;;;;;;3.17;2.08;;;20.00;88.20;;;;;;5066446;28;20044;-78
2022/07/21 11:09:02;;;;;;;3.83;2.33;;;20.00;88.50;;;;;;5022460;28;20053;-79
2022/07/21 11:11:57;;;;;;;3.85;2.30;;;19.90;88.80;;;;;;5048320;28;20053;-79
2022/07/21 11:14:41;;;;;;;4.13;2.22;;;19.80;89.00;;;;;;5045969;28;20531;-77
2022/07/21 11:17:10;;;;;;;2.85;1.50;;;19.70;89.60;;;;;;5038251;28;20052;-76
2022/07/21 11:19:40;;;;;;;3.13;1.60;;;19.60;89.90;;;;;;5058432;28;20068;-76
2022/07/21 11:22:18;;;;;;;3.92;1.77;;;19.60;90.00;;;;;;5059087;28;20045;-77
2022/07/21 11:24:48;;;;;;;4.03;1.63;;;19.50;90.10;;;;;;5068496;28;20040;-77
2022/07/21 11:27:20;;;;;;;2.83;2.00;;;19.50;90.10;;;;;;5078894;28;20036;-78
2022/07/21 11:29:52;;;;;;;4.55;2.22;;;19.40;90.40;;;;;;5072292;28;20032;-80
2022/07/21 11:32:20;;;;;;;3.10;1.83;;;19.30;90.50;;;;;;5059548;28;20040;-81
2022/07/21 11:34:49;;;;;;;4.03;1.80;;;19.20;90.50;;;;;;5042768;28;20140;-80
2022/07/21 11:37:29;;;;;;;2.40;1.70;;;19.20;90.60;;;;;;5059507;28;20068;-82
2022/07/21 11:40:06;;;;;;;2.85;1.50;;;19.20;90.90;;;;;;5058314;28;20511;-79
2022/07/21 11:42:34;;;;;;;3.60;1.98;;;19.30;90.60;;;;;;5052429;28;20136;-80
2022/07/21 11:45:02;;;;;;;3.28;1.58;;;19.30;90.70;;;;;;5058351;28;20083;-81
2022/07/21 11:47:30;;;;;;;3.08;2.08;;;19.40;90.70;;;;;;5053492;28;20451;-80
2022/07/21 11:50:03;;;;;;;3.25;1.90;;;19.40;90.60;;;;;;5071506;28;20401;-80
2022/07/21 11:52:36;;;;;;;3.83;2.15;;;19.50;90.60;;;;;;5074616;28;20110;-81
2022/07/21 11:55:06;;;;;;;3.60;2.25;;;19.50;90.60;;;;;;5064035;28;20131;-81
2022/07/21 11:57:34;;;;;;;3.85;2.20;;;19.50;90.70;;;;;;5054457;28;20071;-80
2022/07/21 12:00:07;;;;;;;3.25;2.17;;;19.40;90.70;;;;;;5074760;28;20098;-80
2022/07/21 12:02:40;;;;;;;3.47;2.53;;;19.40;90.80;;;;;;5055929;28;20052;-80
2022/07/21 12:05:09;;;;;;;5.50;3.55;;;19.40;90.90;;;;;;5039135;28;20053;-80
2022/07/21 12:07:42;;;;;;;4.57;3.55;;;19.40;91.00;;;;;;5062653;28;20053;-79
2022/07/21 12:10:22;;;;;;;7.88;5.50;;;19.40;91.10;;;;;;5056847;28;20048;-79
2022/07/21 12:12:50;;;;;;;6.35;5.00;;;19.30;91.20;;;;;;5057883;28;20072;-80
2022/07/21 12:15:31;;;;;;;6.13;4.65;;;19.40;91.20;;;;;;5057454;28;20496;-78
2022/07/21 12:18:08;;;;;;;7.20;4.60;;;19.40;91.10;;;;;;5075496;28;20115;-79
2022/07/21 12:20:40;;;;;;;7.60;5.00;;;19.40;91.10;;;;;;5055828;28;20098;-79
2022/07/21 12:23:28;;;;;;;8.02;6.28;;;19.40;91.20;;;;;;5048637;28;20064;-79
2022/07/21 12:25:58;;;;;;;7.97;5.35;;;19.40;91.30;;;;;;5047914;28;20044;-78
2022/07/21 12:28:44;;;;;;;6.82;5.20;;;19.30;91.60;;;;;;5053624;28;20487;-80
2022/07/21 12:31:14;;;;;;;7.85;5.50;;;19.30;91.40;;;;;;5058842;28;20040;-80
2022/07/21 12:33:42;;;;;;;6.75;4.80;;;19.30;91.40;;;;;;5054029;28;20051;-80
2022/07/21 12:36:29;;;;;;;7.75;5.78;;;19.30;91.40;;;;;;5063630;28;20123;-79
2022/07/21 12:38:56;;;;;;;8.90;5.45;;;19.20;91.60;;;;;;5040784;28;20044;-81
2022/07/21 12:41:23;;;;;;;6.13;4.30;;;19.30;91.60;;;;;;5034758;28;20056;-78
2022/07/21 12:44:01;;;;;;;5.00;3.92;;;19.30;91.50;;;;;;5030202;28;20128;-78
2022/07/21 12:46:30;;;;;;;6.03;3.75;;;19.50;91.30;;;;;;5075131;28;20492;-79
2022/07/21 12:49:09;;;;;;;6.30;4.22;;;19.40;91.20;;;;;;5073175;28;20056;-79
2022/07/21 12:51:41;;;;;;;5.90;4.35;;;19.40;91.20;;;;;;5067807;28;20036;-79
2022/07/21 12:54:09;;;;;;;5.78;4.22;;;19.40;91.30;;;;;;5059571;28;20473;-79
2022/07/21 12:56:37;;;;;;;5.72;3.80;;;19.40;91.30;;;;;;5040605;28;20123;-79
2022/07/21 12:59:04;;;;;;;5.20;3.90;;;19.50;91.50;;;;;;5074733;28;20037;-80
2022/07/21 13:01:32;;;;;;;7.53;4.53;;;19.50;91.20;;;;;;5069576;28;20447;-80
2022/07/21 13:04:02;;;;;;;6.00;3.78;;;19.40;91.30;;;;;;5074632;28;20036;-79